createdAt,value
2018-08-17T00:02:18.700Z,99660.28
2018-08-17T00:04:47.256Z,99659.91
2018-08-17T00:09:58.884Z,99657.31
2018-08-17T00:12:27.595Z,99663.23
2018-08-17T00:14:56.360Z,99654.35
2018-08-17T00:17:25.034Z,99652.55
2018-08-17T00:19:53.621Z,99650.73
2018-08-17T00:22:22.312Z,99654.19
2018-08-17T00:24:50.934Z,99650.45
2018-08-17T00:27:19.626Z,99650.30
2018-08-17T00:29:48.557Z,99654.59
2018-08-17T00:32:17.173Z,99651.16
2018-08-17T00:34:45.809Z,99648.78
2018-08-17T00:37:14.540Z,99647.25
2018-08-17T00:39:43.154Z,99649.34
2018-08-17T00:42:11.749Z,99654.02
2018-08-17T00:44:40.468Z,99647.27
2018-08-17T00:47:09.101Z,99649.55
2018-08-17T00:49:37.750Z,99651.47
2018-08-17T00:52:06.437Z,99654.22
2018-08-17T00:54:35.155Z,99655.38
2018-08-17T00:57:03.783Z,99658.88
2018-08-17T00:59:32.597Z,99651.75
2018-08-17T01:02:01.254Z,99622.34
2018-08-17T01:04:29.894Z,99659.64
2018-08-17T01:06:58.555Z,99659.38
2018-08-17T01:09:27.203Z,99657.36
2018-08-17T01:11:55.873Z,99661.27
2018-08-17T01:14:24.594Z,99665.34
2018-08-17T01:16:53.160Z,99662.88
2018-08-17T01:19:21.861Z,99666.58
2018-08-17T01:21:50.460Z,99665.02
2018-08-17T01:24:19.119Z,99669.98
2018-08-17T01:26:47.771Z,99668.64
2018-08-17T01:29:16.403Z,99674.73
2018-08-17T01:31:45.020Z,99675.99
2018-08-17T01:34:13.678Z,99677.70
2018-08-17T01:36:42.309Z,99676.30
2018-08-17T01:39:11.550Z,99682.96
2018-08-17T01:41:40.455Z,99682.88
2018-08-17T01:44:09.088Z,99686.39
2018-08-17T01:46:37.764Z,99686.12
2018-08-17T01:49:06.415Z,99689.77
2018-08-17T01:51:35.051Z,99694.14
2018-08-17T01:54:03.699Z,99692.32
2018-08-17T01:56:32.301Z,99697.88
2018-08-17T01:59:00.924Z,99696.64
2018-08-17T02:01:29.571Z,99695.23
2018-08-17T02:03:58.243Z,99699.61
2018-08-17T02:06:26.880Z,99699.61
2018-08-17T02:08:55.535Z,99698.08
2018-08-17T02:11:24.073Z,99698.41
2018-08-17T02:13:52.752Z,99692.03
2018-08-17T02:16:21.310Z,99683.45
2018-08-17T02:18:49.923Z,99691.91
2018-08-17T02:21:18.517Z,99687.91
2018-08-17T02:23:47.134Z,99684.19
2018-08-17T02:26:15.854Z,99704.20
2018-08-17T02:28:44.566Z,99719.00
2018-08-17T02:31:13.199Z,99723.90
2018-08-17T02:33:41.794Z,99725.42
2018-08-17T02:36:11.040Z,99717.61
2018-08-17T02:38:39.803Z,99720.17
2018-08-17T02:41:08.532Z,99737.69
2018-08-17T02:43:37.182Z,99744.08
2018-08-17T02:46:06.004Z,99753.77
2018-08-17T02:48:34.787Z,99754.42
2018-08-17T02:51:03.490Z,99762.51
2018-08-17T02:53:32.152Z,99771.08
2018-08-17T02:56:00.742Z,99594.68
2018-08-17T02:58:29.375Z,99773.71
2018-08-17T03:00:57.959Z,99767.34
2018-08-17T03:03:26.500Z,99772.94
2018-08-17T03:05:55.064Z,99778.23
2018-08-17T03:08:23.693Z,99783.82
2018-08-17T03:10:52.271Z,99791.05
2018-08-17T03:13:20.904Z,99784.08
2018-08-17T03:15:49.480Z,99768.80
2018-08-17T03:18:18.022Z,99769.41
2018-08-17T03:20:46.646Z,99755.19
2018-08-17T03:23:15.343Z,99754.19
2018-08-17T03:25:44.079Z,99766.05
2018-08-17T03:28:12.695Z,99769.84
2018-08-17T03:30:41.324Z,99772.77
2018-08-17T03:33:10.024Z,99756.85
2018-08-17T03:35:38.809Z,99762.74
2018-08-17T03:38:07.476Z,99751.49
2018-08-17T03:40:36.336Z,99760.02
2018-08-17T03:43:05.036Z,99753.92
2018-08-17T03:45:33.865Z,99751.51
2018-08-17T03:48:02.555Z,99737.36
2018-08-17T03:50:31.194Z,99730.18
2018-08-17T03:52:59.875Z,99730.36
2018-08-17T03:55:28.770Z,99732.00
2018-08-17T03:57:57.556Z,99746.87
2018-08-17T04:00:26.179Z,99750.55
2018-08-17T04:02:54.893Z,99752.68
2018-08-17T04:05:23.615Z,99765.78
2018-08-17T04:07:52.266Z,99771.73
2018-08-17T04:10:20.892Z,99777.05
2018-08-17T04:12:49.752Z,99780.17
2018-08-17T04:15:18.427Z,99795.44
2018-08-17T04:17:47.019Z,99804.92
2018-08-17T04:20:15.647Z,99811.13
2018-08-17T04:22:44.406Z,99812.13
2018-08-17T04:25:13.183Z,99813.59
2018-08-17T04:27:41.890Z,99802.17
2018-08-17T04:30:10.614Z,99805.46
2018-08-17T04:32:39.371Z,99812.90
2018-08-17T04:35:08.081Z,99812.13
2018-08-17T04:37:36.681Z,99829.88
2018-08-17T04:40:05.553Z,99833.19
2018-08-17T04:42:34.373Z,99835.30
2018-08-17T04:45:03.052Z,99850.32
2018-08-17T04:47:31.837Z,99849.61
2018-08-17T04:50:00.555Z,99861.80
2018-08-17T04:52:29.307Z,99865.28
2018-08-17T04:54:58.072Z,99875.59
2018-08-17T04:57:26.849Z,99884.55
2018-08-17T04:59:55.636Z,99888.93
2018-08-17T05:02:24.414Z,99896.39
2018-08-17T05:04:53.046Z,99895.95
2018-08-17T05:07:21.791Z,99899.09
2018-08-17T05:09:50.588Z,99906.74
2018-08-17T05:12:19.404Z,99913.66
2018-08-17T05:14:48.934Z,99919.98
2018-08-17T05:17:17.743Z,99923.28
2018-08-17T05:19:46.550Z,99934.55
2018-08-17T05:22:15.327Z,99927.74
2018-08-17T05:24:44.161Z,99934.00
2018-08-17T05:27:13.079Z,99928.25
2018-08-17T05:29:41.935Z,99928.71
2018-08-17T05:32:10.769Z,99932.99
2018-08-17T05:34:39.505Z,99929.86
2018-08-17T05:37:08.459Z,99927.08
2018-08-17T05:39:37.480Z,99912.41
2018-08-17T05:42:06.488Z,99913.09
2018-08-17T05:44:35.184Z,99916.98
2018-08-17T05:47:04.098Z,99929.52
2018-08-17T05:49:32.854Z,99930.90
2018-08-17T05:52:01.614Z,99935.21
2018-08-17T05:54:30.475Z,99928.54
2018-08-17T05:56:59.122Z,99936.11
2018-08-17T05:59:27.772Z,99941.50
2018-08-17T06:01:56.573Z,99946.27
2018-08-17T06:04:25.322Z,99954.20
2018-08-17T06:06:54.370Z,99963.48
2018-08-17T06:09:23.065Z,99973.83
2018-08-17T06:11:51.917Z,99996.52
2018-08-17T06:14:20.711Z,100013.66
2018-08-17T06:16:49.536Z,100005.90
2018-08-17T06:19:18.462Z,99993.20
2018-08-17T06:21:47.181Z,99999.34
2018-08-17T06:24:15.896Z,100017.23
2018-08-17T06:26:44.723Z,100033.37
2018-08-17T06:29:13.427Z,100037.94
2018-08-17T06:31:42.130Z,100035.89
2018-08-17T06:34:10.890Z,100033.02
2018-08-17T06:36:39.769Z,100022.27
2018-08-17T06:39:10.185Z,100000.37
2018-08-17T06:41:38.971Z,100005.94
2018-08-17T06:44:07.760Z,100013.45
2018-08-17T06:46:36.590Z,100020.69
2018-08-17T06:49:05.307Z,100033.36
2018-08-17T06:51:34.006Z,100043.20
2018-08-17T06:54:02.991Z,99917.13
2018-08-17T06:56:31.636Z,100025.92
2018-08-17T06:59:01.132Z,100012.66
2018-08-17T07:01:30.147Z,100002.55
2018-08-17T07:03:58.842Z,99984.17
2018-08-17T07:06:27.464Z,99953.80
2018-08-17T07:08:56.072Z,99945.39
2018-08-17T07:11:24.692Z,99937.57
2018-08-17T07:13:53.373Z,99935.70
2018-08-17T07:16:22.226Z,99938.34
2018-08-17T07:18:51.036Z,99932.75
2018-08-17T07:21:19.932Z,99936.77
2018-08-17T07:23:48.620Z,99933.38
2018-08-17T07:26:17.300Z,99940.03
2018-08-17T07:28:45.955Z,99940.13
2018-08-17T07:31:14.639Z,99955.47
2018-08-17T07:33:43.395Z,99951.99
2018-08-17T07:36:12.020Z,99945.02
2018-08-17T07:38:40.902Z,99947.25
2018-08-17T07:41:09.600Z,99937.52
2018-08-17T07:43:38.319Z,99944.70
2018-08-17T07:46:06.928Z,99947.50
2018-08-17T07:48:35.719Z,99935.64
2018-08-17T07:51:04.410Z,99939.51
2018-08-17T07:53:33.232Z,99941.52
2018-08-17T07:56:02.004Z,99946.85
2018-08-17T07:58:30.683Z,99947.44
2018-08-17T08:00:59.734Z,99954.07
2018-08-17T08:03:28.473Z,99948.37
2018-08-17T08:05:59.614Z,99950.78
2018-08-17T08:08:28.221Z,99955.60
2018-08-17T08:10:56.807Z,99953.05
2018-08-17T08:13:25.420Z,99951.22
2018-08-17T08:15:53.911Z,99956.22
2018-08-17T08:18:22.472Z,99965.42
2018-08-17T08:20:51.503Z,99970.84
2018-08-17T08:23:25.884Z,99967.35
2018-08-17T08:25:54.874Z,99981.91
2018-08-17T08:28:23.443Z,99977.08
2018-08-17T08:30:52.072Z,99979.59
2018-08-17T08:33:20.994Z,99980.47
2018-08-17T08:35:49.963Z,99992.91
2018-08-17T08:38:18.878Z,100002.16
2018-08-17T08:40:48.541Z,100002.70
2018-08-17T08:43:17.385Z,100003.17
2018-08-17T08:45:46.040Z,100010.94
2018-08-17T08:48:14.829Z,100001.16
2018-08-17T08:50:44.100Z,100003.30
2018-08-17T08:53:12.742Z,100003.30
2018-08-17T08:55:41.414Z,100005.25
2018-08-17T08:58:10.071Z,100014.38
2018-08-17T09:00:38.609Z,100018.12
2018-08-17T09:03:07.515Z,100012.86
2018-08-17T09:05:39.630Z,100029.41
2018-08-17T09:08:08.306Z,100017.57
2018-08-17T09:10:36.908Z,100025.56
2018-08-17T09:13:05.534Z,100023.72
2018-08-17T09:15:34.065Z,100025.25
2018-08-17T09:18:02.773Z,100043.10
2018-08-17T09:20:31.376Z,100054.16
2018-08-17T09:23:00.061Z,100053.55
2018-08-17T09:25:28.797Z,100059.23
2018-08-17T09:27:57.543Z,100052.16
2018-08-17T09:30:26.368Z,100054.28
2018-08-17T09:32:55.273Z,100059.70
2018-08-17T09:35:24.048Z,100065.97
2018-08-17T09:37:52.699Z,100066.06
2018-08-17T09:40:21.388Z,100066.63
2018-08-17T09:42:49.949Z,100071.52
2018-08-17T09:45:18.504Z,100014.00
2018-08-17T09:47:47.136Z,100077.09
2018-08-17T09:50:16.160Z,100081.30
2018-08-17T09:52:44.790Z,100078.61
2018-08-17T09:55:13.472Z,100068.80
2018-08-17T09:57:42.388Z,100072.32
2018-08-17T10:00:11.554Z,100068.74
2018-08-17T10:02:45.492Z,100061.05
2018-08-17T10:05:19.354Z,100066.51
2018-08-17T10:07:53.140Z,100062.83
2018-08-17T10:10:23.419Z,100069.88
2018-08-17T10:12:52.708Z,100072.34
2018-08-17T10:15:21.971Z,100078.09
2018-08-17T10:17:50.772Z,100075.82
2018-08-17T10:20:20.640Z,100077.16
2018-08-17T10:22:49.273Z,100077.48
2018-08-17T10:25:25.048Z,100077.16
2018-08-17T10:27:58.169Z,100080.61
2018-08-17T10:30:27.023Z,100084.55
2018-08-17T10:32:57.043Z,100101.31
2018-08-17T10:35:27.515Z,100083.73
2018-08-17T10:37:58.429Z,100088.97
2018-08-17T10:40:27.548Z,100089.69
2018-08-17T10:42:56.294Z,100087.73
2018-08-17T10:45:26.463Z,100098.70
2018-08-17T10:47:55.770Z,100098.98
2018-08-17T10:50:25.839Z,100102.50
2018-08-17T10:52:55.954Z,100096.95
2018-08-17T10:55:29.998Z,100096.77
2018-08-17T10:57:58.594Z,100088.91
2018-08-17T11:00:27.349Z,100086.83
2018-08-17T11:02:56.052Z,100092.95
2018-08-17T11:05:24.668Z,100094.66
2018-08-17T11:07:53.263Z,100089.00
2018-08-17T11:10:21.919Z,100084.52
2018-08-17T11:12:50.591Z,100096.94
2018-08-17T11:15:19.251Z,100095.16
2018-08-17T11:17:47.944Z,100100.80
2018-08-17T11:20:20.869Z,100096.86
2018-08-17T11:22:49.615Z,100093.33
2018-08-17T11:25:18.311Z,100101.72
2018-08-17T11:27:48.285Z,100111.01
2018-08-17T11:30:16.972Z,100112.83
2018-08-17T11:32:45.694Z,100115.23
2018-08-17T11:35:14.446Z,100116.44
2018-08-17T11:37:43.155Z,100115.58
2018-08-17T11:40:12.251Z,100115.98
2018-08-17T11:42:50.491Z,100124.25
2018-08-17T11:45:21.395Z,100120.00
2018-08-17T11:47:50.501Z,100122.07
2018-08-17T11:50:20.938Z,100127.80
2018-08-17T11:52:54.689Z,100127.47
2018-08-17T11:55:24.362Z,100134.61
2018-08-17T11:57:53.225Z,100130.20
2018-08-17T12:00:21.914Z,100137.82
2018-08-17T12:02:50.603Z,100126.08
2018-08-17T12:05:19.294Z,100136.28
2018-08-17T12:07:49.349Z,100136.89
2018-08-17T12:10:18.123Z,100140.41
2018-08-17T12:12:47.702Z,100137.80
2018-08-17T12:15:16.809Z,100140.95
2018-08-17T12:17:45.491Z,100136.39
2018-08-17T12:20:14.365Z,100129.02
2018-08-17T12:22:43.468Z,100142.13
2018-08-17T12:25:12.365Z,100135.84
2018-08-17T12:27:47.057Z,100141.49
2018-08-17T12:30:15.763Z,100144.28
2018-08-17T12:32:44.547Z,100140.12
2018-08-17T12:35:14.143Z,100146.08
2018-08-17T12:37:43.066Z,100147.02
2018-08-17T12:40:12.832Z,100155.30
2018-08-17T12:42:42.393Z,100155.94
2018-08-17T12:45:16.183Z,100155.77
2018-08-17T12:47:44.837Z,100150.80
2018-08-17T12:50:13.560Z,100149.59
2018-08-17T12:52:42.221Z,100154.93
2018-08-17T12:55:10.976Z,100147.59
2018-08-17T12:57:41.933Z,100142.05
2018-08-17T13:00:11.386Z,100153.08
2018-08-17T13:02:40.059Z,100154.59
2018-08-17T13:05:08.631Z,100164.17
2018-08-17T13:07:37.253Z,100165.24
2018-08-17T13:10:06.120Z,100166.14
2018-08-17T13:12:34.733Z,100158.95
2018-08-17T13:15:03.411Z,100154.02
2018-08-17T13:17:38.151Z,100165.08
2018-08-17T13:20:07.419Z,100167.59
2018-08-17T13:22:36.545Z,100160.80
2018-08-17T13:25:05.203Z,100162.14
2018-08-17T13:27:33.775Z,100162.80
2018-08-17T13:30:02.350Z,100160.05
2018-08-17T13:32:30.951Z,100164.33
2018-08-17T13:34:59.593Z,100164.14
2018-08-17T13:37:28.451Z,100162.13
2018-08-17T13:39:57.085Z,100162.53
2018-08-17T13:42:26.274Z,100157.98
2018-08-17T13:45:01.612Z,100160.20
2018-08-17T13:47:30.356Z,100158.34
2018-08-17T13:49:58.977Z,100157.25
2018-08-17T13:52:27.720Z,100153.20
2018-08-17T13:54:56.458Z,100149.16
2018-08-17T13:57:25.169Z,100144.52
2018-08-17T13:59:53.889Z,100147.20
2018-08-17T14:02:22.657Z,100145.49
2018-08-17T14:04:51.210Z,100143.89
2018-08-17T14:07:19.852Z,100139.97
2018-08-17T14:09:48.505Z,100143.91
2018-08-17T14:12:17.057Z,100147.09
2018-08-17T14:14:45.591Z,100148.30
2018-08-17T14:17:14.248Z,100142.28
2018-08-17T14:19:42.797Z,100137.84
2018-08-17T14:22:11.663Z,100142.02
2018-08-17T14:24:40.237Z,100142.23
2018-08-17T14:27:08.820Z,100138.34
2018-08-17T14:29:37.475Z,100137.00
2018-08-17T14:32:06.427Z,100143.36
2018-08-17T14:34:34.991Z,100144.45
2018-08-17T14:37:03.545Z,100143.09
2018-08-17T14:39:32.310Z,100142.82
2018-08-17T14:42:02.013Z,100144.64
2018-08-17T14:44:30.921Z,100225.58
2018-08-17T14:46:59.547Z,100140.03
2018-08-17T14:49:28.116Z,100145.98
2018-08-17T14:51:56.710Z,100147.56
2018-08-17T14:54:25.276Z,100144.97
2018-08-17T14:56:53.921Z,100138.54
2018-08-17T14:59:22.709Z,100138.06
2018-08-17T15:01:51.214Z,100142.20
2018-08-17T15:04:19.758Z,100141.84
2018-08-17T15:06:48.313Z,100139.63
2018-08-17T15:09:16.929Z,100145.25
2018-08-17T15:11:45.391Z,100137.00
2018-08-17T15:14:14.708Z,100142.35
2018-08-17T15:16:43.713Z,100144.92
2018-08-17T15:19:12.356Z,100134.48
2018-08-17T15:21:41.618Z,100130.75
2018-08-17T15:24:11.386Z,100143.30
2018-08-17T15:26:40.033Z,100140.75
2018-08-17T15:29:08.656Z,100126.16
2018-08-17T15:31:37.485Z,100128.39
2018-08-17T15:34:06.136Z,100135.25
2018-08-17T15:36:34.768Z,100131.62
2018-08-17T15:39:03.634Z,100134.95
2018-08-17T15:41:32.383Z,100134.67
2018-08-17T15:44:01.022Z,100128.98
2018-08-17T15:46:33.211Z,100134.77
2018-08-17T15:49:02.101Z,100133.66
2018-08-17T15:51:30.722Z,100134.91
2018-08-17T15:53:59.586Z,100136.52
2018-08-17T15:56:28.235Z,100143.92
2018-08-17T15:58:57.261Z,100136.66
2018-08-17T16:01:26.093Z,100136.13
2018-08-17T16:03:54.612Z,100141.22
2018-08-17T16:06:23.103Z,100138.06
2018-08-17T16:08:52.199Z,100139.97
2018-08-17T16:11:21.128Z,100143.94
2018-08-17T16:13:50.134Z,100140.45
2018-08-17T16:16:19.300Z,100138.82
2018-08-17T16:18:48.289Z,100139.81
2018-08-17T16:21:16.919Z,100142.23
2018-08-17T16:23:45.656Z,99921.73
2018-08-17T16:26:14.201Z,100145.06
2018-08-17T16:28:42.727Z,100156.09
2018-08-17T16:31:11.369Z,100145.95
2018-08-17T16:33:39.925Z,100147.00
2018-08-17T16:36:08.477Z,100144.53
2018-08-17T16:38:37.555Z,100146.55
2018-08-17T16:41:06.565Z,100145.94
2018-08-17T16:43:42.920Z,100145.19
2018-08-17T16:46:11.661Z,100149.22
2018-08-17T16:48:41.127Z,100153.16
2018-08-17T16:51:09.892Z,100148.38
2018-08-17T16:53:38.566Z,100148.30
2018-08-17T16:56:07.337Z,100157.09
2018-08-17T16:58:35.913Z,100156.13
2018-08-17T17:01:04.620Z,100157.67
2018-08-17T17:03:39.770Z,100162.25
2018-08-17T17:06:08.475Z,100162.25
2018-08-17T17:08:37.478Z,100159.27
2018-08-17T17:11:06.120Z,100153.25
2018-08-17T17:13:39.489Z,100165.80
2018-08-17T17:16:08.121Z,100155.37
2018-08-17T17:18:36.663Z,100162.00
2018-08-17T17:21:05.426Z,100162.49
2018-08-17T17:23:34.088Z,100159.31
2018-08-17T17:26:02.674Z,100162.40
2018-08-17T17:28:32.633Z,100159.22
2018-08-17T17:31:01.155Z,100156.03
2018-08-17T17:33:29.725Z,100154.98
2018-08-17T17:35:58.253Z,100158.44
2018-08-17T17:38:26.762Z,100158.72
2018-08-17T17:40:55.251Z,100160.34
2018-08-17T17:43:23.883Z,100159.17
2018-08-17T17:45:52.412Z,100158.61
2018-08-17T17:48:20.947Z,100153.61
2018-08-17T17:50:49.485Z,100152.09
2018-08-17T17:53:18.063Z,100153.79
2018-08-17T17:55:50.165Z,100155.52
2018-08-17T17:58:19.433Z,100158.05
2018-08-17T18:00:57.650Z,100162.08
2018-08-17T18:03:27.819Z,100165.64
2018-08-17T18:06:00.471Z,100164.20
2018-08-17T18:08:30.329Z,100160.15
2018-08-17T18:10:58.939Z,100164.51
2018-08-17T18:13:27.511Z,100166.22
2018-08-17T18:15:57.018Z,100163.05
2018-08-17T18:18:25.650Z,100163.47
2018-08-17T18:20:54.220Z,100163.42
2018-08-17T18:23:22.860Z,100170.47
2018-08-17T18:25:51.509Z,100167.94
2018-08-17T18:28:20.075Z,100176.25
2018-08-17T18:30:48.747Z,100180.70
2018-08-17T18:33:17.267Z,100177.51
2018-08-17T18:35:45.767Z,100182.48
2018-08-17T18:38:14.270Z,100192.71
2018-08-17T18:40:42.797Z,100194.09
2018-08-17T18:43:11.381Z,100193.70
2018-08-17T18:45:39.866Z,100193.73
2018-08-17T18:48:08.413Z,100195.97
2018-08-17T18:50:37.001Z,100201.89
2018-08-17T18:53:05.555Z,100195.77
2018-08-17T18:55:34.174Z,100207.40
2018-08-17T18:58:02.729Z,100208.32
2018-08-17T19:00:31.285Z,100213.80
2018-08-17T19:02:59.928Z,100218.25
2018-08-17T19:05:28.554Z,100222.27
2018-08-17T19:07:57.194Z,100226.27
2018-08-17T19:10:25.784Z,100228.98
2018-08-17T19:12:54.361Z,100232.48
2018-08-17T19:15:22.929Z,100236.03
2018-08-17T19:17:51.491Z,100240.46
2018-08-17T19:20:20.071Z,100246.55
2018-08-17T19:22:48.693Z,100241.98
2018-08-17T19:25:17.304Z,100251.17
2018-08-17T19:27:45.836Z,100249.75
2018-08-17T19:30:27.838Z,100253.50
2018-08-17T19:32:57.593Z,100248.58
2018-08-17T19:35:26.238Z,100258.53
2018-08-17T19:37:54.905Z,100254.41
2018-08-17T19:40:23.817Z,100257.32
2018-08-17T19:42:52.414Z,100259.73
2018-08-17T19:45:21.519Z,100261.72
2018-08-17T19:47:50.278Z,100266.39
2018-08-17T19:50:18.818Z,100266.64
2018-08-17T19:52:47.331Z,100267.77
2018-08-17T19:55:15.835Z,100266.69
2018-08-17T19:57:44.443Z,100275.80
2018-08-17T20:00:13.691Z,100279.58
2018-08-17T20:02:42.524Z,100278.35
2018-08-17T20:05:11.392Z,100278.59
2018-08-17T20:07:40.219Z,100286.31
2018-08-17T20:10:09.983Z,100287.70
2018-08-17T20:12:38.503Z,100289.16
2018-08-17T20:15:08.462Z,100291.73
2018-08-17T20:17:37.417Z,100293.55
2018-08-17T20:20:09.615Z,100293.59
2018-08-17T20:22:38.172Z,100291.82
2018-08-17T20:25:21.332Z,100294.00
2018-08-17T20:27:49.906Z,100293.25
2018-08-17T20:30:23.773Z,100295.11
2018-08-17T20:32:52.388Z,100301.36
2018-08-17T20:35:21.042Z,100300.08
2018-08-17T20:37:52.013Z,100295.64
2018-08-17T20:40:20.964Z,100304.02
2018-08-17T20:42:49.660Z,100300.52
2018-08-17T20:45:18.331Z,100300.22
2018-08-17T20:47:46.935Z,100299.47
2018-08-17T20:50:17.039Z,100306.30
2018-08-17T20:52:50.557Z,100304.34
2018-08-17T20:55:19.786Z,100302.75
2018-08-17T20:57:50.360Z,100309.62
2018-08-17T21:00:19.010Z,100310.25
2018-08-17T21:02:47.841Z,100300.28
2018-08-17T21:05:17.067Z,100302.23
2018-08-17T21:07:46.388Z,100309.00
2018-08-17T21:10:14.959Z,100305.19
2018-08-17T21:12:43.549Z,100315.54
2018-08-17T21:15:12.075Z,100316.92
2018-08-17T21:17:40.614Z,100315.37
2018-08-17T21:20:09.198Z,100315.09
2018-08-17T21:22:37.647Z,100328.14
2018-08-17T21:25:06.335Z,100319.94
2018-08-17T21:27:35.060Z,100325.41
2018-08-17T21:30:04.196Z,100324.25
2018-08-17T21:32:32.686Z,100325.66
2018-08-17T21:35:01.393Z,100330.17
2018-08-17T21:37:30.108Z,100330.29
2018-08-17T21:39:58.660Z,100330.41
2018-08-17T21:42:27.188Z,100336.69
2018-08-17T21:44:55.736Z,100331.02
2018-08-17T21:47:24.201Z,100332.46
2018-08-17T21:49:55.369Z,100338.26
2018-08-17T21:52:24.209Z,100341.03
2018-08-17T21:54:52.742Z,100341.14
2018-08-17T21:57:21.293Z,100340.90
2018-08-17T21:59:51.708Z,100341.86
2018-08-17T22:02:21.008Z,100345.48
2018-08-17T22:04:49.520Z,100345.08
2018-08-17T22:07:21.320Z,100342.53
2018-08-17T22:09:50.201Z,100347.08
2018-08-17T22:12:18.768Z,100350.66
2018-08-17T22:14:47.841Z,100349.52
2018-08-17T22:17:28.759Z,100350.96
2018-08-17T22:19:57.332Z,100345.77
2018-08-17T22:22:25.948Z,100347.61
2018-08-17T22:24:58.154Z,100351.27
2018-08-17T22:27:27.983Z,100353.11
2018-08-17T22:29:57.806Z,100345.70
2018-08-17T22:32:26.353Z,100351.05
2018-08-17T22:34:55.165Z,100351.56
2018-08-17T22:37:23.716Z,100352.11
2018-08-17T22:39:52.289Z,100357.52
2018-08-17T22:42:22.473Z,100351.96
2018-08-17T22:44:51.433Z,100361.75
2018-08-17T22:47:22.131Z,100364.03
2018-08-17T22:49:51.833Z,100368.12
2018-08-17T22:52:20.376Z,100368.67
2018-08-17T22:54:55.788Z,100368.30
2018-08-17T22:57:24.568Z,100374.55
2018-08-17T23:00:09.456Z,100365.38
2018-08-17T23:02:38.642Z,100371.27
2018-08-17T23:05:09.183Z,100370.92
2018-08-17T23:07:37.968Z,100370.95
2018-08-17T23:10:12.760Z,100374.97
2018-08-17T23:12:41.506Z,100377.72
2018-08-17T23:15:11.319Z,100379.97
2018-08-17T23:17:40.802Z,100377.83
2018-08-17T23:20:09.383Z,100376.50
2018-08-17T23:22:47.943Z,100383.16
2018-08-17T23:25:16.576Z,100381.97
2018-08-17T23:27:45.688Z,100382.48
2018-08-17T23:30:14.372Z,100380.23
2018-08-17T23:32:43.145Z,100380.34
2018-08-17T23:35:11.664Z,100373.34
2018-08-17T23:37:40.367Z,100383.55
2018-08-17T23:40:09.776Z,100378.73
2018-08-17T23:42:38.284Z,100385.39
2018-08-17T23:45:08.276Z,100388.04
2018-08-17T23:47:36.778Z,100388.07
2018-08-17T23:50:05.937Z,100386.34
2018-08-17T23:52:34.543Z,100393.03
2018-08-17T23:55:03.084Z,100390.92
2018-08-17T23:57:31.686Z,100393.16
